sensor_id;sensor_type;location;lat;lon;timestamp;temperature;humidity
4811;DHT22;2419;51.276;6.472;2023-07-02T00:00:33;17.20;99.90
4811;DHT22;2419;51.276;6.472;2023-07-02T00:03:01;17.20;99.90
4811;DHT22;2419;51.276;6.472;2023-07-02T00:05:29;17.20;99.90
4811;DHT22;2419;51.276;6.472;2023-07-02T00:07:58;17.20;99.90
4811;DHT22;2419;51.276;6.472;2023-07-02T00:10:27;17.10;99.90
4811;DHT22;2419;51.276;6.472;2023-07-02T00:12:55;17.10;99.90
4811;DHT22;2419;51.276;6.472;2023-07-02T00:15:23;17.10;99.90
4811;DHT22;2419;51.276;6.472;2023-07-02T00:17:51;17.10;99.90
4811;DHT22;2419;51.276;6.472;2023-07-02T00:20:19;17.10;99.90
4811;DHT22;2419;51.276;6.472;2023-07-02T00:22:48;17.10;99.90
4811;DHT22;2419;51.276;6.472;2023-07-02T00:25:16;17.10;99.90
4811;DHT22;2419;51.276;6.472;2023-07-02T00:27:45;17.00;99.90
4811;DHT22;2419;51.276;6.472;2023-07-02T00:30:14;16.90;99.90
4811;DHT22;2419;51.276;6.472;2023-07-02T00:32:42;17.00;99.90
4811;DHT22;2419;51.276;6.472;2023-07-02T00:35:11;17.00;99.90
4811;DHT22;2419;51.276;6.472;2023-07-02T00:37:39;16.90;99.90
4811;DHT22;2419;51.276;6.472;2023-07-02T00:40:08;16.90;99.90
4811;DHT22;2419;51.276;6.472;2023-07-02T00:42:36;16.90;99.90
4811;DHT22;2419;51.276;6.472;2023-07-02T00:45:07;16.90;99.90
4811;DHT22;2419;51.276;6.472;2023-07-02T00:47:36;16.90;99.90
4811;DHT22;2419;51.276;6.472;2023-07-02T00:50:05;16.90;99.90
4811;DHT22;2419;51.276;6.472;2023-07-02T00:52:34;16.80;99.90
4811;DHT22;2419;51.276;6.472;2023-07-02T00:55:02;16.70;99.90
4811;DHT22;2419;51.276;6.472;2023-07-02T00:57:30;16.70;99.90
4811;DHT22;2419;51.276;6.472;2023-07-02T00:59:59;16.70;99.90
4811;DHT22;2419;51.276;6.472;2023-07-02T01:02:29;16.70;99.90
4811;DHT22;2419;51.276;6.472;2023-07-02T01:04:57;16.70;99.90
4811;DHT22;2419;51.276;6.472;2023-07-02T01:07:28;16.60;99.90
4811;DHT22;2419;51.276;6.472;2023-07-02T01:09:56;16.60;99.90
4811;DHT22;2419;51.276;6.472;2023-07-02T01:12:26;16.60;99.90
4811;DHT22;2419;51.276;6.472;2023-07-02T01:14:57;16.50;99.90
4811;DHT22;2419;51.276;6.472;2023-07-02T01:17:29;16.50;99.90
4811;DHT22;2419;51.276;6.472;2023-07-02T01:20:07;16.40;99.90
4811;DHT22;2419;51.276;6.472;2023-07-02T01:22:36;16.30;99.90
4811;DHT22;2419;51.276;6.472;2023-07-02T01:25:05;16.30;99.90
4811;DHT22;2419;51.276;6.472;2023-07-02T01:27:36;16.20;99.90
4811;DHT22;2419;51.276;6.472;2023-07-02T01:30:06;16.20;99.90
4811;DHT22;2419;51.276;6.472;2023-07-02T01:32:36;16.20;99.90
4811;DHT22;2419;51.276;6.472;2023-07-02T01:35:07;16.20;99.90
4811;DHT22;2419;51.276;6.472;2023-07-02T01:37:36;16.20;99.90
4811;DHT22;2419;51.276;6.472;2023-07-02T01:40:06;16.10;99.90
4811;DHT22;2419;51.276;6.472;2023-07-02T01:42:35;16.10;99.90
4811;DHT22;2419;51.276;6.472;2023-07-02T01:45:04;16.00;99.90
4811;DHT22;2419;51.276;6.472;2023-07-02T01:47:32;16.10;99.90
4811;DHT22;2419;51.276;6.472;2023-07-02T01:50:00;16.10;99.90
4811;DHT22;2419;51.276;6.472;2023-07-02T01:52:29;16.00;99.90
4811;DHT22;2419;51.276;6.472;2023-07-02T01:55:01;16.00;99.90
4811;DHT22;2419;51.276;6.472;2023-07-02T01:57:30;16.00;99.90
4811;DHT22;2419;51.276;6.472;2023-07-02T01:59:58;16.10;99.90
4811;DHT22;2419;51.276;6.472;2023-07-02T02:02:26;16.10;99.90
4811;DHT22;2419;51.276;6.472;2023-07-02T02:04:55;16.10;99.90
4811;DHT22;2419;51.276;6.472;2023-07-02T02:07:23;16.10;99.90
4811;DHT22;2419;51.276;6.472;2023-07-02T02:09:54;16.10;99.90
4811;DHT22;2419;51.276;6.472;2023-07-02T02:12:22;16.00;99.90
4811;DHT22;2419;51.276;6.472;2023-07-02T02:14:50;16.10;99.90
4811;DHT22;2419;51.276;6.472;2023-07-02T02:17:19;16.10;99.90
4811;DHT22;2419;51.276;6.472;2023-07-02T02:19:47;16.10;99.90
4811;DHT22;2419;51.276;6.472;2023-07-02T02:22:15;16.00;99.90
4811;DHT22;2419;51.276;6.472;2023-07-02T02:24:43;16.00;99.90
4811;DHT22;2419;51.276;6.472;2023-07-02T02:27:13;16.10;99.90
4811;DHT22;2419;51.276;6.472;2023-07-02T02:29:41;16.00;99.90
4811;DHT22;2419;51.276;6.472;2023-07-02T02:32:09;16.00;99.90
4811;DHT22;2419;51.276;6.472;2023-07-02T02:34:38;16.00;99.90
4811;DHT22;2419;51.276;6.472;2023-07-02T02:37:06;16.00;99.90
4811;DHT22;2419;51.276;6.472;2023-07-02T02:39:36;16.00;99.90
4811;DHT22;2419;51.276;6.472;2023-07-02T02:42:05;16.10;99.90
4811;DHT22;2419;51.276;6.472;2023-07-02T02:44:34;16.10;99.90
4811;DHT22;2419;51.276;6.472;2023-07-02T02:47:03;16.00;99.90
4811;DHT22;2419;51.276;6.472;2023-07-02T02:49:32;16.00;99.90
4811;DHT22;2419;51.276;6.472;2023-07-02T02:52:00;16.10;99.90
4811;DHT22;2419;51.276;6.472;2023-07-02T02:54:28;16.00;99.90
4811;DHT22;2419;51.276;6.472;2023-07-02T02:56:56;16.00;99.90
4811;DHT22;2419;51.276;6.472;2023-07-02T02:59:24;16.00;99.90
4811;DHT22;2419;51.276;6.472;2023-07-02T03:01:54;16.00;99.90
4811;DHT22;2419;51.276;6.472;2023-07-02T03:04:22;15.90;99.90
4811;DHT22;2419;51.276;6.472;2023-07-02T03:06:52;16.00;99.90
4811;DHT22;2419;51.276;6.472;2023-07-02T03:09:20;16.00;99.90
4811;DHT22;2419;51.276;6.472;2023-07-02T03:11:48;15.90;99.90
4811;DHT22;2419;51.276;6.472;2023-07-02T03:14:17;15.90;99.90
4811;DHT22;2419;51.276;6.472;2023-07-02T03:16:45;16.00;99.90
4811;DHT22;2419;51.276;6.472;2023-07-02T03:19:18;15.90;99.90
4811;DHT22;2419;51.276;6.472;2023-07-02T03:21:46;15.90;99.90
4811;DHT22;2419;51.276;6.472;2023-07-02T03:24:16;15.90;99.90
4811;DHT22;2419;51.276;6.472;2023-07-02T03:26:45;15.90;99.90
4811;DHT22;2419;51.276;6.472;2023-07-02T03:29:13;15.90;99.90
4811;DHT22;2419;51.276;6.472;2023-07-02T03:31:41;15.90;99.90
4811;DHT22;2419;51.276;6.472;2023-07-02T03:34:10;15.90;99.90
4811;DHT22;2419;51.276;6.472;2023-07-02T03:36:39;15.90;99.90
4811;DHT22;2419;51.276;6.472;2023-07-02T03:39:07;15.80;99.90
4811;DHT22;2419;51.276;6.472;2023-07-02T03:41:36;15.80;99.90
4811;DHT22;2419;51.276;6.472;2023-07-02T03:44:05;15.80;99.90
4811;DHT22;2419;51.276;6.472;2023-07-02T03:46:33;15.90;99.90
4811;DHT22;2419;51.276;6.472;2023-07-02T03:49:02;15.90;99.90
4811;DHT22;2419;51.276;6.472;2023-07-02T03:51:30;15.80;99.90
4811;DHT22;2419;51.276;6.472;2023-07-02T03:54:00;15.90;99.90
4811;DHT22;2419;51.276;6.472;2023-07-02T03:56:28;15.90;99.90
4811;DHT22;2419;51.276;6.472;2023-07-02T03:58:56;15.80;99.90
4811;DHT22;2419;51.276;6.472;2023-07-02T04:01:24;15.80;99.90
4811;DHT22;2419;51.276;6.472;2023-07-02T04:03:53;15.80;99.90
4811;DHT22;2419;51.276;6.472;2023-07-02T04:06:21;15.80;99.90
4811;DHT22;2419;51.276;6.472;2023-07-02T04:08:50;15.90;99.90
4811;DHT22;2419;51.276;6.472;2023-07-02T04:11:19;15.90;99.90
4811;DHT22;2419;51.276;6.472;2023-07-02T04:13:47;15.90;99.90
4811;DHT22;2419;51.276;6.472;2023-07-02T04:16:15;15.90;99.90
4811;DHT22;2419;51.276;6.472;2023-07-02T04:18:43;15.90;99.90
4811;DHT22;2419;51.276;6.472;2023-07-02T04:21:11;15.90;99.90
4811;DHT22;2419;51.276;6.472;2023-07-02T04:23:39;15.90;99.90
4811;DHT22;2419;51.276;6.472;2023-07-02T04:26:08;15.90;99.90
4811;DHT22;2419;51.276;6.472;2023-07-02T04:28:58;15.90;99.90
4811;DHT22;2419;51.276;6.472;2023-07-02T04:31:26;15.90;99.90
4811;DHT22;2419;51.276;6.472;2023-07-02T04:33:54;15.90;99.90
4811;DHT22;2419;51.276;6.472;2023-07-02T04:36:22;15.90;99.90
4811;DHT22;2419;51.276;6.472;2023-07-02T04:38:51;15.90;99.90
4811;DHT22;2419;51.276;6.472;2023-07-02T04:41:19;16.00;99.90
4811;DHT22;2419;51.276;6.472;2023-07-02T04:43:47;16.00;99.90
4811;DHT22;2419;51.276;6.472;2023-07-02T04:46:16;16.00;99.90
4811;DHT22;2419;51.276;6.472;2023-07-02T04:48:45;15.90;99.90
4811;DHT22;2419;51.276;6.472;2023-07-02T04:51:13;16.00;99.90
4811;DHT22;2419;51.276;6.472;2023-07-02T04:53:41;16.00;99.90
4811;DHT22;2419;51.276;6.472;2023-07-02T04:56:09;16.00;99.90
4811;DHT22;2419;51.276;6.472;2023-07-02T04:58:37;16.00;99.90
4811;DHT22;2419;51.276;6.472;2023-07-02T05:01:05;16.00;99.90
4811;DHT22;2419;51.276;6.472;2023-07-02T05:03:36;16.00;99.90
4811;DHT22;2419;51.276;6.472;2023-07-02T05:06:04;16.00;99.90
4811;DHT22;2419;51.276;6.472;2023-07-02T05:08:32;16.00;99.90
4811;DHT22;2419;51.276;6.472;2023-07-02T05:11:01;16.00;99.90
4811;DHT22;2419;51.276;6.472;2023-07-02T05:13:29;16.10;99.90
4811;DHT22;2419;51.276;6.472;2023-07-02T05:15:57;16.10;99.90
4811;DHT22;2419;51.276;6.472;2023-07-02T05:18:25;16.10;99.90
4811;DHT22;2419;51.276;6.472;2023-07-02T05:20:54;16.20;99.90
4811;DHT22;2419;51.276;6.472;2023-07-02T05:23:22;16.30;99.90
4811;DHT22;2419;51.276;6.472;2023-07-02T05:25:50;16.30;99.90
4811;DHT22;2419;51.276;6.472;2023-07-02T05:28:18;16.40;99.90
4811;DHT22;2419;51.276;6.472;2023-07-02T05:30:46;16.30;99.90
4811;DHT22;2419;51.276;6.472;2023-07-02T05:33:15;16.40;99.90
4811;DHT22;2419;51.276;6.472;2023-07-02T05:35:43;16.50;99.90
4811;DHT22;2419;51.276;6.472;2023-07-02T05:38:14;16.50;99.90
4811;DHT22;2419;51.276;6.472;2023-07-02T05:40:42;16.50;99.90
4811;DHT22;2419;51.276;6.472;2023-07-02T05:43:10;16.50;99.90
4811;DHT22;2419;51.276;6.472;2023-07-02T05:45:39;16.60;99.90
4811;DHT22;2419;51.276;6.472;2023-07-02T05:48:07;16.60;99.90
4811;DHT22;2419;51.276;6.472;2023-07-02T05:50:35;16.60;99.90
4811;DHT22;2419;51.276;6.472;2023-07-02T05:53:03;16.60;99.90
4811;DHT22;2419;51.276;6.472;2023-07-02T05:55:32;16.60;99.90
4811;DHT22;2419;51.276;6.472;2023-07-02T05:58:00;16.70;99.90
4811;DHT22;2419;51.276;6.472;2023-07-02T06:00:29;16.70;99.90
4811;DHT22;2419;51.276;6.472;2023-07-02T06:02:57;16.70;99.90
4811;DHT22;2419;51.276;6.472;2023-07-02T06:05:26;16.70;99.90
4811;DHT22;2419;51.276;6.472;2023-07-02T06:07:54;16.70;99.90
4811;DHT22;2419;51.276;6.472;2023-07-02T06:10:22;16.70;99.90
4811;DHT22;2419;51.276;6.472;2023-07-02T06:12:51;16.80;99.90
4811;DHT22;2419;51.276;6.472;2023-07-02T06:15:20;16.90;99.90
4811;DHT22;2419;51.276;6.472;2023-07-02T06:17:47;16.80;99.90
4811;DHT22;2419;51.276;6.472;2023-07-02T06:20:16;16.80;99.90
4811;DHT22;2419;51.276;6.472;2023-07-02T06:22:44;16.80;99.90
4811;DHT22;2419;51.276;6.472;2023-07-02T06:25:13;17.00;99.90
4811;DHT22;2419;51.276;6.472;2023-07-02T06:27:41;17.20;99.90
4811;DHT22;2419;51.276;6.472;2023-07-02T06:30:11;17.30;99.90
4811;DHT22;2419;51.276;6.472;2023-07-02T06:32:39;17.40;99.90
4811;DHT22;2419;51.276;6.472;2023-07-02T06:35:08;17.50;99.90
4811;DHT22;2419;51.276;6.472;2023-07-02T06:37:36;17.60;99.90
4811;DHT22;2419;51.276;6.472;2023-07-02T06:40:05;17.70;99.90
4811;DHT22;2419;51.276;6.472;2023-07-02T06:42:34;17.70;99.90
4811;DHT22;2419;51.276;6.472;2023-07-02T06:45:03;17.80;99.90
4811;DHT22;2419;51.276;6.472;2023-07-02T06:47:33;17.90;99.90
4811;DHT22;2419;51.276;6.472;2023-07-02T06:50:01;17.80;99.90
4811;DHT22;2419;51.276;6.472;2023-07-02T06:52:29;17.80;99.90
4811;DHT22;2419;51.276;6.472;2023-07-02T06:54:57;17.80;99.90
4811;DHT22;2419;51.276;6.472;2023-07-02T06:57:25;17.80;99.90
4811;DHT22;2419;51.276;6.472;2023-07-02T06:59:57;18.10;99.90
4811;DHT22;2419;51.276;6.472;2023-07-02T07:02:26;18.20;99.90
4811;DHT22;2419;51.276;6.472;2023-07-02T07:04:56;18.10;99.90
4811;DHT22;2419;51.276;6.472;2023-07-02T07:07:24;18.20;99.90
4811;DHT22;2419;51.276;6.472;2023-07-02T07:09:52;18.30;99.90
4811;DHT22;2419;51.276;6.472;2023-07-02T07:12:20;18.50;99.90
4811;DHT22;2419;51.276;6.472;2023-07-02T07:14:48;18.60;99.90
4811;DHT22;2419;51.276;6.472;2023-07-02T07:17:16;18.70;99.90
4811;DHT22;2419;51.276;6.472;2023-07-02T07:19:44;18.90;99.90
4811;DHT22;2419;51.276;6.472;2023-07-02T07:22:14;19.20;99.90
4811;DHT22;2419;51.276;6.472;2023-07-02T07:24:42;19.00;99.90
4811;DHT22;2419;51.276;6.472;2023-07-02T07:27:10;18.70;99.90
4811;DHT22;2419;51.276;6.472;2023-07-02T07:29:38;18.90;99.90
4811;DHT22;2419;51.276;6.472;2023-07-02T07:32:06;19.00;99.90
4811;DHT22;2419;51.276;6.472;2023-07-02T07:34:34;19.00;99.90
4811;DHT22;2419;51.276;6.472;2023-07-02T07:37:03;18.80;99.90
4811;DHT22;2419;51.276;6.472;2023-07-02T07:39:32;19.00;99.90
4811;DHT22;2419;51.276;6.472;2023-07-02T07:42:01;19.20;99.90
4811;DHT22;2419;51.276;6.472;2023-07-02T07:44:29;19.20;99.90
4811;DHT22;2419;51.276;6.472;2023-07-02T07:46:57;18.90;99.90
4811;DHT22;2419;51.276;6.472;2023-07-02T07:49:25;19.00;99.90
4811;DHT22;2419;51.276;6.472;2023-07-02T07:51:53;19.10;99.90
4811;DHT22;2419;51.276;6.472;2023-07-02T07:54:21;19.00;99.90
4811;DHT22;2419;51.276;6.472;2023-07-02T07:56:52;19.10;99.90
4811;DHT22;2419;51.276;6.472;2023-07-02T07:59:20;19.00;99.90
4811;DHT22;2419;51.276;6.472;2023-07-02T08:01:48;18.90;99.90
4811;DHT22;2419;51.276;6.472;2023-07-02T08:04:18;18.70;99.90
4811;DHT22;2419;51.276;6.472;2023-07-02T08:06:47;18.60;99.90
4811;DHT22;2419;51.276;6.472;2023-07-02T08:09:17;18.40;99.90
4811;DHT22;2419;51.276;6.472;2023-07-02T08:11:45;18.60;99.90
4811;DHT22;2419;51.276;6.472;2023-07-02T08:14:16;18.70;99.90
4811;DHT22;2419;51.276;6.472;2023-07-02T08:16:44;18.80;99.90
4811;DHT22;2419;51.276;6.472;2023-07-02T08:19:12;19.00;99.90
4811;DHT22;2419;51.276;6.472;2023-07-02T08:21:40;18.90;99.90
4811;DHT22;2419;51.276;6.472;2023-07-02T08:24:08;18.90;99.90
4811;DHT22;2419;51.276;6.472;2023-07-02T08:26:36;18.80;99.90
4811;DHT22;2419;51.276;6.472;2023-07-02T08:29:04;18.60;99.90
4811;DHT22;2419;51.276;6.472;2023-07-02T08:31:34;18.80;99.90
4811;DHT22;2419;51.276;6.472;2023-07-02T08:34:02;18.90;99.90
4811;DHT22;2419;51.276;6.472;2023-07-02T08:36:31;18.70;99.90
4811;DHT22;2419;51.276;6.472;2023-07-02T08:38:59;18.70;99.90
4811;DHT22;2419;51.276;6.472;2023-07-02T08:41:28;18.80;99.90
4811;DHT22;2419;51.276;6.472;2023-07-02T08:43:56;18.70;99.20
4811;DHT22;2419;51.276;6.472;2023-07-02T08:46:26;19.10;99.10
4811;DHT22;2419;51.276;6.472;2023-07-02T08:48:55;19.30;99.00
4811;DHT22;2419;51.276;6.472;2023-07-02T08:51:23;19.30;98.70
4811;DHT22;2419;51.276;6.472;2023-07-02T08:53:51;19.40;99.00
4811;DHT22;2419;51.276;6.472;2023-07-02T08:56:20;19.50;99.70
4811;DHT22;2419;51.276;6.472;2023-07-02T08:58:48;19.80;99.10
4811;DHT22;2419;51.276;6.472;2023-07-02T09:01:16;19.80;99.00
4811;DHT22;2419;51.276;6.472;2023-07-02T09:03:44;19.50;99.30
4811;DHT22;2419;51.276;6.472;2023-07-02T09:06:16;19.80;99.90
4811;DHT22;2419;51.276;6.472;2023-07-02T09:08:44;20.30;99.40
4811;DHT22;2419;51.276;6.472;2023-07-02T09:11:14;20.20;98.70
4811;DHT22;2419;51.276;6.472;2023-07-02T09:13:45;20.20;99.20
4811;DHT22;2419;51.276;6.472;2023-07-02T09:16:23;20.20;98.60
4811;DHT22;2419;51.276;6.472;2023-07-02T09:18:59;20.30;99.00
4811;DHT22;2419;51.276;6.472;2023-07-02T09:21:37;19.80;98.30
4811;DHT22;2419;51.276;6.472;2023-07-02T09:24:14;19.60;99.00
4811;DHT22;2419;51.276;6.472;2023-07-02T09:26:46;19.60;99.10
4811;DHT22;2419;51.276;6.472;2023-07-02T09:29:18;19.30;99.60
4811;DHT22;2419;51.276;6.472;2023-07-02T09:31:46;18.80;99.90
4811;DHT22;2419;51.276;6.472;2023-07-02T09:34:36;18.50;99.90
4811;DHT22;2419;51.276;6.472;2023-07-02T09:37:06;18.50;99.90
4811;DHT22;2419;51.276;6.472;2023-07-02T09:39:35;18.70;99.90
4811;DHT22;2419;51.276;6.472;2023-07-02T09:42:06;18.80;99.90
4811;DHT22;2419;51.276;6.472;2023-07-02T09:44:35;19.30;99.90
4811;DHT22;2419;51.276;6.472;2023-07-02T09:47:05;19.60;98.90
4811;DHT22;2419;51.276;6.472;2023-07-02T09:49:34;19.90;97.40
4811;DHT22;2419;51.276;6.472;2023-07-02T09:52:06;20.30;96.60
4811;DHT22;2419;51.276;6.472;2023-07-02T09:54:35;20.80;96.90
4811;DHT22;2419;51.276;6.472;2023-07-02T09:57:04;21.30;96.20
4811;DHT22;2419;51.276;6.472;2023-07-02T09:59:35;21.50;95.80
4811;DHT22;2419;51.276;6.472;2023-07-02T10:02:03;20.90;95.60
4811;DHT22;2419;51.276;6.472;2023-07-02T10:04:40;20.40;95.90
4811;DHT22;2419;51.276;6.472;2023-07-02T10:07:10;19.60;96.20
4811;DHT22;2419;51.276;6.472;2023-07-02T10:09:40;19.40;95.70
4811;DHT22;2419;51.276;6.472;2023-07-02T10:12:18;19.30;95.70
4811;DHT22;2419;51.276;6.472;2023-07-02T10:14:47;19.10;96.10
4811;DHT22;2419;51.276;6.472;2023-07-02T10:17:29;19.10;95.00
4811;DHT22;2419;51.276;6.472;2023-07-02T10:19:59;19.00;95.40
4811;DHT22;2419;51.276;6.472;2023-07-02T10:22:42;18.90;95.50
4811;DHT22;2419;51.276;6.472;2023-07-02T10:25:10;18.90;95.90
4811;DHT22;2419;51.276;6.472;2023-07-02T10:27:39;18.90;95.50
4811;DHT22;2419;51.276;6.472;2023-07-02T10:30:09;19.20;95.60
4811;DHT22;2419;51.276;6.472;2023-07-02T10:32:38;19.50;95.20
4811;DHT22;2419;51.276;6.472;2023-07-02T10:35:13;19.90;95.20
4811;DHT22;2419;51.276;6.472;2023-07-02T10:37:43;20.50;95.10
4811;DHT22;2419;51.276;6.472;2023-07-02T10:40:12;21.00;93.60
4811;DHT22;2419;51.276;6.472;2023-07-02T10:42:50;21.50;93.40
4811;DHT22;2419;51.276;6.472;2023-07-02T10:45:20;21.60;92.90
4811;DHT22;2419;51.276;6.472;2023-07-02T10:47:48;21.70;91.80
4811;DHT22;2419;51.276;6.472;2023-07-02T10:50:17;21.50;90.50
4811;DHT22;2419;51.276;6.472;2023-07-02T10:52:47;20.80;91.40
4811;DHT22;2419;51.276;6.472;2023-07-02T10:55:17;20.70;91.60
4811;DHT22;2419;51.276;6.472;2023-07-02T10:57:47;21.30;91.60
4811;DHT22;2419;51.276;6.472;2023-07-02T11:00:15;22.50;89.00
4811;DHT22;2419;51.276;6.472;2023-07-02T11:02:43;22.80;87.40
4811;DHT22;2419;51.276;6.472;2023-07-02T11:05:12;22.90;86.90
4811;DHT22;2419;51.276;6.472;2023-07-02T11:07:40;23.20;83.90
4811;DHT22;2419;51.276;6.472;2023-07-02T11:10:18;23.20;83.80
4811;DHT22;2419;51.276;6.472;2023-07-02T11:12:46;23.80;79.10
4811;DHT22;2419;51.276;6.472;2023-07-02T11:15:16;24.60;77.90
4811;DHT22;2419;51.276;6.472;2023-07-02T11:17:45;23.40;75.00
4811;DHT22;2419;51.276;6.472;2023-07-02T11:20:14;23.90;76.20
4811;DHT22;2419;51.276;6.472;2023-07-02T11:22:43;24.20;72.70
4811;DHT22;2419;51.276;6.472;2023-07-02T11:25:16;23.40;72.80
4811;DHT22;2419;51.276;6.472;2023-07-02T11:27:45;22.80;74.00
4811;DHT22;2419;51.276;6.472;2023-07-02T11:30:14;22.50;75.60
4811;DHT22;2419;51.276;6.472;2023-07-02T11:32:49;22.40;76.40
4811;DHT22;2419;51.276;6.472;2023-07-02T11:35:18;22.30;77.80
4811;DHT22;2419;51.276;6.472;2023-07-02T11:37:47;22.30;78.30
4811;DHT22;2419;51.276;6.472;2023-07-02T11:40:18;22.40;79.60
4811;DHT22;2419;51.276;6.472;2023-07-02T11:42:47;22.80;80.40
4811;DHT22;2419;51.276;6.472;2023-07-02T11:45:15;23.30;79.00
4811;DHT22;2419;51.276;6.472;2023-07-02T11:47:43;23.30;76.80
4811;DHT22;2419;51.276;6.472;2023-07-02T11:50:11;23.30;76.20
4811;DHT22;2419;51.276;6.472;2023-07-02T11:52:53;23.40;74.80
4811;DHT22;2419;51.276;6.472;2023-07-02T11:55:22;22.80;77.10
4811;DHT22;2419;51.276;6.472;2023-07-02T11:57:50;22.50;76.10
4811;DHT22;2419;51.276;6.472;2023-07-02T12:00:19;22.40;77.20
4811;DHT22;2419;51.276;6.472;2023-07-02T12:02:48;21.70;78.50
4811;DHT22;2419;51.276;6.472;2023-07-02T12:05:16;22.10;81.10
4811;DHT22;2419;51.276;6.472;2023-07-02T12:07:44;23.10;78.90
4811;DHT22;2419;51.276;6.472;2023-07-02T12:10:12;23.90;77.10
4811;DHT22;2419;51.276;6.472;2023-07-02T12:12:42;23.80;73.10
4811;DHT22;2419;51.276;6.472;2023-07-02T12:15:10;23.50;73.60
4811;DHT22;2419;51.276;6.472;2023-07-02T12:17:38;23.30;75.90
4811;DHT22;2419;51.276;6.472;2023-07-02T12:20:07;22.80;76.10
4811;DHT22;2419;51.276;6.472;2023-07-02T12:22:35;22.80;78.70
4811;DHT22;2419;51.276;6.472;2023-07-02T12:25:04;22.70;78.50
4811;DHT22;2419;51.276;6.472;2023-07-02T12:27:32;22.60;76.50
4811;DHT22;2419;51.276;6.472;2023-07-02T12:30:02;22.30;78.70
4811;DHT22;2419;51.276;6.472;2023-07-02T12:32:30;22.40;78.90
4811;DHT22;2419;51.276;6.472;2023-07-02T12:34:58;22.70;79.30
4811;DHT22;2419;51.276;6.472;2023-07-02T12:37:26;22.40;77.90
4811;DHT22;2419;51.276;6.472;2023-07-02T12:39:54;22.30;80.40
4811;DHT22;2419;51.276;6.472;2023-07-02T12:42:22;22.30;79.20
4811;DHT22;2419;51.276;6.472;2023-07-02T12:44:50;22.60;80.50
4811;DHT22;2419;51.276;6.472;2023-07-02T12:47:20;23.10;80.10
4811;DHT22;2419;51.276;6.472;2023-07-02T12:49:48;23.20;77.70
4811;DHT22;2419;51.276;6.472;2023-07-02T12:52:16;22.30;80.60
4811;DHT22;2419;51.276;6.472;2023-07-02T12:54:43;22.90;81.60
4811;DHT22;2419;51.276;6.472;2023-07-02T12:57:12;23.00;80.80
4811;DHT22;2419;51.276;6.472;2023-07-02T12:59:40;22.80;80.70
4811;DHT22;2419;51.276;6.472;2023-07-02T13:02:09;22.50;80.50
4811;DHT22;2419;51.276;6.472;2023-07-02T13:04:39;22.30;81.70
4811;DHT22;2419;51.276;6.472;2023-07-02T13:07:07;22.80;81.30
4811;DHT22;2419;51.276;6.472;2023-07-02T13:09:35;22.90;80.60
4811;DHT22;2419;51.276;6.472;2023-07-02T13:12:04;22.50;81.80
4811;DHT22;2419;51.276;6.472;2023-07-02T13:14:33;23.10;82.50
4811;DHT22;2419;51.276;6.472;2023-07-02T13:17:01;23.40;78.90
4811;DHT22;2419;51.276;6.472;2023-07-02T13:19:29;23.20;80.20
4811;DHT22;2419;51.276;6.472;2023-07-02T13:21:59;23.00;78.50
4811;DHT22;2419;51.276;6.472;2023-07-02T13:24:32;23.30;80.40
4811;DHT22;2419;51.276;6.472;2023-07-02T13:27:04;23.50;80.20
4811;DHT22;2419;51.276;6.472;2023-07-02T13:29:33;23.60;79.80
4811;DHT22;2419;51.276;6.472;2023-07-02T13:32:01;23.40;80.30
4811;DHT22;2419;51.276;6.472;2023-07-02T13:34:29;23.30;81.10
4811;DHT22;2419;51.276;6.472;2023-07-02T13:36:58;23.40;81.20
4811;DHT22;2419;51.276;6.472;2023-07-02T13:39:29;22.70;82.60
4811;DHT22;2419;51.276;6.472;2023-07-02T13:41:57;22.30;83.80
4811;DHT22;2419;51.276;6.472;2023-07-02T13:44:26;21.90;83.30
4811;DHT22;2419;51.276;6.472;2023-07-02T13:46:54;22.00;84.50
4811;DHT22;2419;51.276;6.472;2023-07-02T13:49:22;22.20;84.80
4811;DHT22;2419;51.276;6.472;2023-07-02T13:51:50;22.40;86.00
4811;DHT22;2419;51.276;6.472;2023-07-02T13:54:19;22.50;86.30
4811;DHT22;2419;51.276;6.472;2023-07-02T13:56:48;22.60;85.50
4811;DHT22;2419;51.276;6.472;2023-07-02T13:59:19;22.40;84.60
4811;DHT22;2419;51.276;6.472;2023-07-02T14:01:48;22.00;85.20
4811;DHT22;2419;51.276;6.472;2023-07-02T14:04:17;22.30;87.20
4811;DHT22;2419;51.276;6.472;2023-07-02T14:06:46;22.60;86.80
4811;DHT22;2419;51.276;6.472;2023-07-02T14:09:14;22.60;88.90
4811;DHT22;2419;51.276;6.472;2023-07-02T14:11:43;22.20;87.70
4811;DHT22;2419;51.276;6.472;2023-07-02T14:14:12;22.30;86.90
4811;DHT22;2419;51.276;6.472;2023-07-02T14:16:41;22.20;88.30
4811;DHT22;2419;51.276;6.472;2023-07-02T14:19:09;22.30;89.70
4811;DHT22;2419;51.276;6.472;2023-07-02T14:21:39;22.50;89.10
4811;DHT22;2419;51.276;6.472;2023-07-02T14:24:07;22.40;85.70
4811;DHT22;2419;51.276;6.472;2023-07-02T14:26:35;22.40;86.10
4811;DHT22;2419;51.276;6.472;2023-07-02T14:29:03;22.50;86.70
4811;DHT22;2419;51.276;6.472;2023-07-02T14:31:32;22.80;86.50
4811;DHT22;2419;51.276;6.472;2023-07-02T14:34:01;22.70;86.50
4811;DHT22;2419;51.276;6.472;2023-07-02T14:36:29;22.60;85.00
4811;DHT22;2419;51.276;6.472;2023-07-02T14:38:57;22.50;87.10
4811;DHT22;2419;51.276;6.472;2023-07-02T14:41:25;22.80;85.60
4811;DHT22;2419;51.276;6.472;2023-07-02T14:43:53;22.90;83.10
4811;DHT22;2419;51.276;6.472;2023-07-02T14:46:21;22.90;82.00
4811;DHT22;2419;51.276;6.472;2023-07-02T14:48:50;23.10;81.20
4811;DHT22;2419;51.276;6.472;2023-07-02T14:51:19;22.80;81.70
4811;DHT22;2419;51.276;6.472;2023-07-02T14:53:47;22.60;83.50
4811;DHT22;2419;51.276;6.472;2023-07-02T14:56:15;22.80;82.50
4811;DHT22;2419;51.276;6.472;2023-07-02T14:58:43;23.00;83.70
4811;DHT22;2419;51.276;6.472;2023-07-02T15:01:11;23.30;84.50
4811;DHT22;2419;51.276;6.472;2023-07-02T15:03:40;23.40;84.40
4811;DHT22;2419;51.276;6.472;2023-07-02T15:06:10;23.10;82.60
4811;DHT22;2419;51.276;6.472;2023-07-02T15:08:40;22.40;81.20
4811;DHT22;2419;51.276;6.472;2023-07-02T15:11:08;22.10;83.30
4811;DHT22;2419;51.276;6.472;2023-07-02T15:13:37;22.20;83.70
4811;DHT22;2419;51.276;6.472;2023-07-02T15:16:08;22.10;83.40
4811;DHT22;2419;51.276;6.472;2023-07-02T15:18:37;22.40;85.80
4811;DHT22;2419;51.276;6.472;2023-07-02T15:21:05;22.70;84.30
4811;DHT22;2419;51.276;6.472;2023-07-02T15:23:33;22.70;84.60
4811;DHT22;2419;51.276;6.472;2023-07-02T15:26:04;22.90;83.40
4811;DHT22;2419;51.276;6.472;2023-07-02T15:28:33;22.90;82.80
4811;DHT22;2419;51.276;6.472;2023-07-02T15:31:05;22.60;82.20
4811;DHT22;2419;51.276;6.472;2023-07-02T15:33:33;22.50;83.90
4811;DHT22;2419;51.276;6.472;2023-07-02T15:36:03;22.90;83.90
4811;DHT22;2419;51.276;6.472;2023-07-02T15:38:31;22.80;81.00
4811;DHT22;2419;51.276;6.472;2023-07-02T15:41:09;22.50;80.10
4811;DHT22;2419;51.276;6.472;2023-07-02T15:43:38;22.30;81.70
4811;DHT22;2419;51.276;6.472;2023-07-02T15:46:07;22.40;80.60
4811;DHT22;2419;51.276;6.472;2023-07-02T15:48:35;22.40;82.70
4811;DHT22;2419;51.276;6.472;2023-07-02T15:51:03;22.30;82.00
4811;DHT22;2419;51.276;6.472;2023-07-02T15:53:32;22.30;82.10
4811;DHT22;2419;51.276;6.472;2023-07-02T15:56:00;22.20;82.10
4811;DHT22;2419;51.276;6.472;2023-07-02T15:58:31;22.30;81.40
4811;DHT22;2419;51.276;6.472;2023-07-02T16:01:10;22.00;82.30
4811;DHT22;2419;51.276;6.472;2023-07-02T16:03:39;22.20;82.20
4811;DHT22;2419;51.276;6.472;2023-07-02T16:06:08;22.20;80.80
4811;DHT22;2419;51.276;6.472;2023-07-02T16:08:36;22.30;80.90
4811;DHT22;2419;51.276;6.472;2023-07-02T16:11:05;22.40;82.30
4811;DHT22;2419;51.276;6.472;2023-07-02T16:13:35;22.40;80.60